createdAt,value
2019-05-17T00:01:00.793Z,9.50
2019-05-17T00:03:29.489Z,9.60
2019-05-17T00:05:51.420Z,9.60
2019-05-17T00:08:12.914Z,9.60
2019-05-17T00:10:34.430Z,9.60
2019-05-17T00:12:56.361Z,9.50
2019-05-17T00:15:18.053Z,9.50
2019-05-17T00:17:39.488Z,9.50
2019-05-17T00:20:00.824Z,9.50
2019-05-17T00:22:41.974Z,9.50
2019-05-17T00:25:07.377Z,9.50
2019-05-17T00:27:29.231Z,9.40
2019-05-17T00:29:50.661Z,9.40
2019-05-17T00:32:31.890Z,9.40
2019-05-17T00:34:53.320Z,9.40
2019-05-17T00:37:14.706Z,9.40
2019-05-17T00:39:36.765Z,9.40
2019-05-17T00:41:58.326Z,9.40
2019-05-17T00:44:19.716Z,9.40
2019-05-17T00:46:41.102Z,9.30
2019-05-17T00:49:02.745Z,9.40
2019-05-17T00:51:27.245Z,9.40
2019-05-17T00:53:48.428Z,9.40
2019-05-17T00:56:29.785Z,9.40
2019-05-17T00:58:51.061Z,9.40
2019-05-17T01:01:12.361Z,9.40
2019-05-17T01:03:33.648Z,9.40
2019-05-17T01:05:56.752Z,9.40
2019-05-17T01:08:18.470Z,9.40
2019-05-17T01:10:40.063Z,9.40
2019-05-17T01:13:01.383Z,9.40
2019-05-17T01:15:22.966Z,9.40
2019-05-17T01:17:47.145Z,9.40
2019-05-17T01:20:08.385Z,9.40
2019-05-17T01:22:29.722Z,9.40
2019-05-17T01:24:51.331Z,9.30
2019-05-17T01:27:12.744Z,9.30
2019-05-17T01:29:36.165Z,9.30
2019-05-17T01:31:57.373Z,9.20
2019-05-17T01:34:18.707Z,9.20
2019-05-17T01:36:40.079Z,9.20
2019-05-17T01:39:14.103Z,9.20
2019-05-17T01:41:26.676Z,9.10
2019-05-17T01:43:47.782Z,9.10
2019-05-17T01:46:09.065Z,9.10
2019-05-17T01:48:30.486Z,9.10
2019-05-17T01:50:52.256Z,9.10
2019-05-17T01:53:13.739Z,9.10
2019-05-17T01:55:37.204Z,9.00
2019-05-17T01:57:58.427Z,9.00
2019-05-17T02:00:19.922Z,9.00
2019-05-17T02:02:43.357Z,9.00
2019-05-17T02:05:06.432Z,9.00
2019-05-17T02:07:28.242Z,8.90
2019-05-17T02:10:09.490Z,8.90
2019-05-17T02:12:30.887Z,8.80
2019-05-17T02:14:52.293Z,8.80
2019-05-17T02:17:13.627Z,8.70
2019-05-17T02:19:37.026Z,8.80
2019-05-17T02:21:58.347Z,8.80
2019-05-17T02:24:19.738Z,8.80
2019-05-17T02:26:41.149Z,8.80
2019-05-17T02:29:02.533Z,8.80
2019-05-17T02:31:24.769Z,8.70
2019-05-17T02:33:46.371Z,8.70
2019-05-17T02:36:08.026Z,8.70
2019-05-17T02:38:32.849Z,8.70
2019-05-17T02:40:53.517Z,8.70
2019-05-17T02:43:15.227Z,8.70
2019-05-17T02:45:36.631Z,8.70
2019-05-17T02:47:58.028Z,8.70
2019-05-17T02:50:19.306Z,8.70
2019-05-17T02:52:43.836Z,8.70
2019-05-17T02:55:04.433Z,8.70
2019-05-17T02:57:25.803Z,8.70
2019-05-17T02:59:47.251Z,8.70
2019-05-17T03:02:08.632Z,8.70
2019-05-17T03:04:32.489Z,8.70
2019-05-17T03:06:53.529Z,8.70
2019-05-17T03:09:14.935Z,8.60
2019-05-17T03:11:36.322Z,8.70
2019-05-17T03:13:57.731Z,8.80
2019-05-17T03:16:19.130Z,8.80
2019-05-17T03:18:43.642Z,8.90
2019-05-17T03:21:04.186Z,9.00
2019-05-17T03:23:26.014Z,9.00
2019-05-17T03:25:47.702Z,9.00
2019-05-17T03:28:09.007Z,9.10
2019-05-17T03:30:35.499Z,9.20
2019-05-17T03:32:56.256Z,9.20
2019-05-17T03:35:18.060Z,9.20
2019-05-17T03:37:43.429Z,9.30
2019-05-17T03:40:21.666Z,9.30
2019-05-17T03:42:27.915Z,9.40
2019-05-17T03:44:49.213Z,9.40
2019-05-17T03:47:13.134Z,9.50
2019-05-17T03:49:33.815Z,9.50
2019-05-17T03:51:55.206Z,9.50
2019-05-17T03:54:16.689Z,9.50
2019-05-17T03:56:38.129Z,9.60
2019-05-17T03:58:59.518Z,9.60
2019-05-17T04:01:23.213Z,9.50
2019-05-17T04:03:44.248Z,9.40
2019-05-17T04:06:05.838Z,9.40
2019-05-17T04:08:27.106Z,9.50
2019-05-17T04:10:48.410Z,9.50
2019-05-17T04:13:12.704Z,9.60
2019-05-17T04:15:33.086Z,9.70
2019-05-17T04:18:14.746Z,9.80
2019-05-17T04:20:36.150Z,9.90
2019-05-17T04:23:06.698Z,10.00
2019-05-17T04:25:28.376Z,10.20
2019-05-17T04:27:53.370Z,10.30
2019-05-17T04:30:13.369Z,10.50
2019-05-17T04:32:35.282Z,10.60
2019-05-17T04:34:56.562Z,10.80
2019-05-17T04:37:18.159Z,10.90
2019-05-17T04:39:39.480Z,11.10
2019-05-17T04:42:03.726Z,11.20
2019-05-17T04:44:24.143Z,11.40
2019-05-17T04:46:45.459Z,11.60
2019-05-17T04:49:06.952Z,11.70
2019-05-17T04:51:28.537Z,11.80
2019-05-17T04:53:52.914Z,11.90
2019-05-17T04:56:14.006Z,12.00
2019-05-17T04:58:36.162Z,12.10
2019-05-17T05:00:57.466Z,12.10
2019-05-17T05:03:18.955Z,12.10
2019-05-17T05:05:42.785Z,12.10
2019-05-17T05:08:03.692Z,12.10
2019-05-17T05:10:25.036Z,12.00
2019-05-17T05:12:46.426Z,12.00
2019-05-17T05:15:08.794Z,12.00
2019-05-17T05:17:32.688Z,12.00
2019-05-17T05:19:53.338Z,12.00
2019-05-17T05:22:17.510Z,12.10
2019-05-17T05:24:38.299Z,12.10
2019-05-17T05:26:59.682Z,12.10
2019-05-17T05:29:21.633Z,12.10
2019-05-17T05:31:43.455Z,12.10
2019-05-17T05:34:04.985Z,12.10
2019-05-17T05:36:26.458Z,12.10
2019-05-17T05:38:48.366Z,12.10
2019-05-17T05:41:12.072Z,12.20
2019-05-17T05:43:33.225Z,12.20
2019-05-17T05:45:54.532Z,12.30
2019-05-17T05:48:16.026Z,12.30
2019-05-17T05:50:37.629Z,12.30
2019-05-17T05:53:01.782Z,12.40
2019-05-17T05:55:23.399Z,12.40
2019-05-17T05:57:45.163Z,12.50
2019-05-17T06:00:06.784Z,12.60
2019-05-17T06:02:28.189Z,12.60
2019-05-17T06:04:51.875Z,12.60
2019-05-17T06:07:13.141Z,12.60
2019-05-17T06:09:34.525Z,12.60
2019-05-17T06:11:56.006Z,12.70
2019-05-17T06:14:17.550Z,12.70
2019-05-17T06:16:39.131Z,12.80
2019-05-17T06:19:02.369Z,12.90
2019-05-17T06:21:38.270Z,13.00
2019-05-17T06:24:02.412Z,13.10
2019-05-17T06:26:23.743Z,13.10
2019-05-17T06:28:45.765Z,13.20
2019-05-17T06:31:07.438Z,13.30
2019-05-17T06:33:33.806Z,13.50
2019-05-17T06:35:52.608Z,13.60
2019-05-17T06:38:14.328Z,13.70
2019-05-17T06:40:35.730Z,13.90
2019-05-17T06:42:57.230Z,14.00
2019-05-17T06:45:18.814Z,14.20
2019-05-17T06:48:02.351Z,14.40
2019-05-17T06:50:23.715Z,14.50
2019-05-17T06:52:45.341Z,14.70
2019-05-17T06:55:06.882Z,14.90
2019-05-17T06:57:28.819Z,15.10
2019-05-17T06:59:50.204Z,15.20
2019-05-17T07:02:11.962Z,15.40
2019-05-17T07:04:33.424Z,15.50
2019-05-17T07:07:13.758Z,15.50
2019-05-17T07:09:36.106Z,15.40
2019-05-17T07:11:59.599Z,15.40
2019-05-17T07:14:21.261Z,15.50
2019-05-17T07:16:42.988Z,15.60
2019-05-17T07:19:04.277Z,15.70
2019-05-17T07:21:25.691Z,15.70
2019-05-17T07:23:46.973Z,15.80
2019-05-17T07:26:11.363Z,15.80
2019-05-17T07:28:31.785Z,15.90
2019-05-17T07:30:53.195Z,15.80
2019-05-17T07:33:14.793Z,16.00
2019-05-17T07:35:36.409Z,16.00
2019-05-17T07:37:59.570Z,16.20
2019-05-17T07:40:20.985Z,16.20
2019-05-17T07:42:42.385Z,16.20
2019-05-17T07:45:06.211Z,16.10
2019-05-17T07:47:29.463Z,16.00
2019-05-17T07:49:50.702Z,16.00
2019-05-17T07:52:12.209Z,16.10
2019-05-17T07:54:33.943Z,16.10
2019-05-17T07:56:55.370Z,16.00
2019-05-17T07:59:19.942Z,16.00
2019-05-17T08:01:41.774Z,16.00
2019-05-17T08:04:03.210Z,15.90
2019-05-17T08:06:24.486Z,15.80
2019-05-17T08:08:45.867Z,15.80
2019-05-17T08:11:07.484Z,15.70
2019-05-17T08:13:31.358Z,15.80
2019-05-17T08:15:52.521Z,15.60
2019-05-17T08:18:14.081Z,15.60
2019-05-17T08:20:35.478Z,15.60
2019-05-17T08:22:59.444Z,15.60
2019-05-17T08:25:21.208Z,15.60
2019-05-17T08:27:42.479Z,15.60
2019-05-17T08:30:05.365Z,15.60
2019-05-17T08:32:26.796Z,15.70
2019-05-17T08:34:49.533Z,15.60
2019-05-17T08:37:11.225Z,15.60
2019-05-17T08:39:32.838Z,15.60
2019-05-17T08:41:54.229Z,15.60
2019-05-17T08:44:15.642Z,15.40
2019-05-17T08:46:39.402Z,15.40
2019-05-17T08:49:00.485Z,15.40
2019-05-17T08:51:22.004Z,15.50
2019-05-17T08:53:43.303Z,15.60
2019-05-17T08:56:04.586Z,15.60
2019-05-17T08:58:25.873Z,15.70
2019-05-17T09:00:50.605Z,15.70
2019-05-17T09:03:12.303Z,15.70
2019-05-17T09:05:33.591Z,15.60
2019-05-17T09:07:55.102Z,15.70
2019-05-17T09:10:17.098Z,15.70
2019-05-17T09:12:40.576Z,15.90
2019-05-17T09:15:01.721Z,16.10
2019-05-17T09:17:23.022Z,16.30
2019-05-17T09:19:44.494Z,16.40
2019-05-17T09:22:06.145Z,16.60
2019-05-17T09:24:27.427Z,16.70
2019-05-17T09:26:49.331Z,16.70
2019-05-17T09:29:10.947Z,16.80
2019-05-17T09:31:32.572Z,16.80
2019-05-17T09:33:54.047Z,16.90
2019-05-17T09:36:15.872Z,16.90
2019-05-17T09:38:37.145Z,16.80
2019-05-17T09:40:59.961Z,16.70
2019-05-17T09:43:22.011Z,16.70
2019-05-17T09:45:43.403Z,16.80
2019-05-17T09:48:04.716Z,16.90
2019-05-17T09:50:26.231Z,17.00
2019-05-17T09:52:49.436Z,17.20
2019-05-17T09:55:12.741Z,17.30
2019-05-17T09:57:34.387Z,17.30
2019-05-17T09:59:56.060Z,17.40
2019-05-17T10:02:17.383Z,17.40
2019-05-17T10:04:39.511Z,17.50
2019-05-17T10:07:01.388Z,17.40
2019-05-17T10:09:22.888Z,17.30
2019-05-17T10:11:44.513Z,17.30
2019-05-17T10:14:05.993Z,17.20
2019-05-17T10:16:27.537Z,17.20
2019-05-17T10:18:48.918Z,17.10
2019-05-17T10:21:10.632Z,17.10
2019-05-17T10:23:32.193Z,17.20
2019-05-17T10:25:53.866Z,17.40
2019-05-17T10:28:15.244Z,17.40
2019-05-17T10:30:36.526Z,17.40
2019-05-17T10:32:59.995Z,17.50
2019-05-17T10:35:21.072Z,17.60
2019-05-17T10:37:43.314Z,17.60
2019-05-17T10:40:05.624Z,17.60
2019-05-17T10:42:26.942Z,17.60
2019-05-17T10:44:51.404Z,17.50
2019-05-17T10:47:11.326Z,17.60
2019-05-17T10:49:32.870Z,17.60
2019-05-17T10:51:54.465Z,17.60
2019-05-17T10:54:16.059Z,17.70
2019-05-17T10:56:37.396Z,17.70
2019-05-17T10:59:00.099Z,17.50
2019-05-17T11:01:21.766Z,17.50
2019-05-17T11:03:43.380Z,17.40
2019-05-17T11:06:04.985Z,17.40
2019-05-17T11:08:26.581Z,17.50
2019-05-17T11:10:50.054Z,17.50
2019-05-17T11:13:11.101Z,17.50
2019-05-17T11:15:52.286Z,17.50
2019-05-17T11:18:13.764Z,17.60
2019-05-17T11:20:35.280Z,17.70
2019-05-17T11:22:56.813Z,17.70
2019-05-17T11:25:18.320Z,17.70
2019-05-17T11:27:39.794Z,17.80
2019-05-17T11:30:01.474Z,17.90
2019-05-17T11:32:22.967Z,18.00
2019-05-17T11:34:44.378Z,18.20
2019-05-17T11:37:05.909Z,18.30
2019-05-17T11:39:28.388Z,18.30
2019-05-17T11:41:49.646Z,18.30
2019-05-17T11:44:11.422Z,18.30
2019-05-17T11:46:36.152Z,18.30
2019-05-17T11:48:56.108Z,18.40
2019-05-17T11:51:17.407Z,18.50
2019-05-17T11:53:38.795Z,18.50
2019-05-17T11:56:00.398Z,18.50
2019-05-17T11:58:21.722Z,18.50
2019-05-17T12:00:45.430Z,18.50
2019-05-17T12:03:06.719Z,18.60
2019-05-17T12:05:28.151Z,18.60
2019-05-17T12:07:55.651Z,18.70
2019-05-17T12:10:17.050Z,18.70
2019-05-17T12:12:38.582Z,18.60
2019-05-17T12:14:59.901Z,18.50
2019-05-17T12:17:21.449Z,18.50
2019-05-17T12:19:42.851Z,18.40
2019-05-17T12:22:04.720Z,18.50
2019-05-17T12:24:26.316Z,18.50
2019-05-17T12:26:47.847Z,18.60
2019-05-17T12:29:09.228Z,18.70
2019-05-17T12:31:30.707Z,18.80
2019-05-17T12:33:52.372Z,18.90
2019-05-17T12:36:14.091Z,19.00
2019-05-17T12:38:35.430Z,19.00
2019-05-17T12:40:57.508Z,18.90
2019-05-17T12:43:18.906Z,18.90
2019-05-17T12:45:40.700Z,19.00
2019-05-17T12:48:02.141Z,19.10
2019-05-17T12:50:23.427Z,19.20
2019-05-17T12:52:45.028Z,19.20
2019-05-17T12:55:06.649Z,19.30
2019-05-17T12:57:47.978Z,19.30
2019-05-17T13:00:10.593Z,19.30
2019-05-17T13:02:31.906Z,19.20
2019-05-17T13:04:53.436Z,19.10
2019-05-17T13:07:14.948Z,19.20
2019-05-17T13:09:36.541Z,19.30
2019-05-17T13:11:58.039Z,19.60
2019-05-17T13:14:19.588Z,19.70
2019-05-17T13:16:41.081Z,19.70
2019-05-17T13:19:02.455Z,19.70
2019-05-17T13:21:24.288Z,19.80
2019-05-17T13:23:45.787Z,19.80
2019-05-17T13:26:07.730Z,20.00
2019-05-17T13:28:29.048Z,20.20
2019-05-17T13:30:50.574Z,20.50
2019-05-17T13:33:11.986Z,20.60
2019-05-17T13:35:33.432Z,20.70
2019-05-17T13:37:54.821Z,20.70
2019-05-17T13:40:16.212Z,20.70
2019-05-17T13:42:37.793Z,20.80
2019-05-17T13:44:59.291Z,20.80
2019-05-17T13:47:20.762Z,20.90
2019-05-17T13:49:42.383Z,20.70
2019-05-17T13:52:03.758Z,20.60
2019-05-17T13:54:25.425Z,20.40
2019-05-17T13:56:46.803Z,20.20
2019-05-17T13:59:08.438Z,19.80
2019-05-17T14:01:30.881Z,19.60
2019-05-17T14:03:52.331Z,19.50
2019-05-17T14:06:13.665Z,19.40
2019-05-17T14:08:35.105Z,19.40
2019-05-17T14:10:56.592Z,19.40
2019-05-17T14:13:17.977Z,19.40
2019-05-17T14:15:39.639Z,19.40
2019-05-17T14:18:01.016Z,19.30
2019-05-17T14:20:22.510Z,19.30
2019-05-17T14:22:43.873Z,19.30
2019-05-17T14:25:06.208Z,19.40
2019-05-17T14:27:27.744Z,19.40
2019-05-17T14:29:49.257Z,19.40
2019-05-17T14:32:10.939Z,19.40
2019-05-17T14:34:32.567Z,19.40
2019-05-17T14:36:54.222Z,19.40
2019-05-17T14:39:15.711Z,19.40
2019-05-17T14:41:37.179Z,19.40
2019-05-17T14:43:59.711Z,19.60
2019-05-17T14:46:21.210Z,19.60
2019-05-17T14:48:42.578Z,19.60
2019-05-17T14:51:04.010Z,19.60
2019-05-17T14:53:25.514Z,19.60
2019-05-17T14:55:47.020Z,19.60
2019-05-17T14:58:08.571Z,19.70
2019-05-17T15:00:35.955Z,19.60
2019-05-17T15:02:57.983Z,19.60
2019-05-17T15:05:19.647Z,19.70
2019-05-17T15:07:41.043Z,19.80
2019-05-17T15:10:04.946Z,19.80
2019-05-17T15:12:28.657Z,20.00
2019-05-17T15:14:49.610Z,20.10
2019-05-17T15:17:11.003Z,20.10
2019-05-17T15:19:32.417Z,20.10
2019-05-17T15:21:53.906Z,20.20
2019-05-17T15:24:15.433Z,20.30
2019-05-17T15:26:36.845Z,20.30
2019-05-17T15:28:58.349Z,20.50
2019-05-17T15:31:19.934Z,20.50
2019-05-17T15:33:41.481Z,20.70
2019-05-17T15:36:02.939Z,20.80
2019-05-17T15:38:24.390Z,20.90
2019-05-17T15:40:46.075Z,20.80
2019-05-17T15:43:07.659Z,20.60
2019-05-17T15:45:29.490Z,20.50
2019-05-17T15:47:50.828Z,20.50
2019-05-17T15:50:14.230Z,20.70
2019-05-17T15:52:35.717Z,20.80
2019-05-17T15:54:57.371Z,20.70
2019-05-17T15:57:19.348Z,20.70
2019-05-17T15:59:41.046Z,20.60
2019-05-17T16:02:16.400Z,20.60
2019-05-17T16:04:38.139Z,20.50
2019-05-17T16:06:59.636Z,20.40
2019-05-17T16:09:21.071Z,20.20
2019-05-17T16:11:42.473Z,20.10
2019-05-17T16:14:04.181Z,20.00
2019-05-17T16:16:25.700Z,19.90
2019-05-17T16:18:47.657Z,19.80
2019-05-17T16:21:09.049Z,19.70
2019-05-17T16:23:30.470Z,19.60
2019-05-17T16:25:51.868Z,19.60
2019-05-17T16:28:13.498Z,19.40
2019-05-17T16:30:34.905Z,19.30
2019-05-17T16:32:56.198Z,19.20
2019-05-17T16:35:17.686Z,19.20
2019-05-17T16:37:39.131Z,19.20
2019-05-17T16:40:20.270Z,19.10
2019-05-17T16:42:41.898Z,19.00
2019-05-17T16:45:05.215Z,18.90
2019-05-17T16:47:26.865Z,18.90
2019-05-17T16:49:48.379Z,18.80
2019-05-17T16:52:29.714Z,18.70
2019-05-17T16:54:51.241Z,18.70
2019-05-17T16:57:12.775Z,18.60
2019-05-17T16:59:34.242Z,18.50
2019-05-17T17:01:55.725Z,18.50
2019-05-17T17:04:17.211Z,18.40
2019-05-17T17:06:38.597Z,18.30
2019-05-17T17:09:00.270Z,18.30
2019-05-17T17:11:21.551Z,18.20
2019-05-17T17:13:42.929Z,18.20
2019-05-17T17:16:04.371Z,18.20
2019-05-17T17:18:25.782Z,18.20
2019-05-17T17:20:47.404Z,18.20
2019-05-17T17:23:09.057Z,18.10
2019-05-17T17:25:30.845Z,18.20
2019-05-17T17:27:52.439Z,18.10
2019-05-17T17:30:13.974Z,18.10
2019-05-17T17:32:35.565Z,18.00
2019-05-17T17:34:56.850Z,18.00
2019-05-17T17:37:18.186Z,18.00
2019-05-17T17:39:39.524Z,17.90
2019-05-17T17:42:00.985Z,17.90
2019-05-17T17:44:22.310Z,17.90
2019-05-17T17:46:43.946Z,17.90
2019-05-17T17:49:05.446Z,17.90
2019-05-17T17:51:26.897Z,17.80
2019-05-17T17:53:48.300Z,17.80
2019-05-17T17:56:13.006Z,17.80
2019-05-17T17:58:33.055Z,17.70
2019-05-17T18:00:54.451Z,17.60
2019-05-17T18:03:15.839Z,17.60
2019-05-17T18:05:37.142Z,17.60
2019-05-17T18:07:58.445Z,17.50
2019-05-17T18:10:31.174Z,17.40
2019-05-17T18:12:53.035Z,17.40
2019-05-17T18:15:14.687Z,17.30
2019-05-17T18:17:39.347Z,17.20
2019-05-17T18:19:59.450Z,17.20
2019-05-17T18:22:20.852Z,17.10
2019-05-17T18:24:42.124Z,17.10
2019-05-17T18:27:03.643Z,17.00
2019-05-17T18:29:25.445Z,16.90
2019-05-17T18:31:46.970Z,16.80
2019-05-17T18:34:08.256Z,16.60
2019-05-17T18:36:29.846Z,16.50
2019-05-17T18:38:51.723Z,16.40
2019-05-17T18:41:13.551Z,16.30
2019-05-17T18:43:34.929Z,16.20
2019-05-17T18:45:59.215Z,16.10
2019-05-17T18:48:20.419Z,16.10
2019-05-17T18:50:41.896Z,16.00
2019-05-17T18:53:23.247Z,15.90
2019-05-17T18:55:44.617Z,15.80
2019-05-17T18:58:06.013Z,15.70
2019-05-17T19:00:27.437Z,15.70
2019-05-17T19:02:49.602Z,15.60
2019-05-17T19:05:10.972Z,15.50
2019-05-17T19:07:32.416Z,15.50
2019-05-17T19:09:53.691Z,15.40
2019-05-17T19:12:15.295Z,15.30
2019-05-17T19:14:43.043Z,15.30
2019-05-17T19:17:00.026Z,15.20
2019-05-17T19:19:21.422Z,15.20
2019-05-17T19:21:43.363Z,15.10
2019-05-17T19:24:04.963Z,15.10
2019-05-17T19:26:26.541Z,15.10
2019-05-17T19:28:47.866Z,15.10
2019-05-17T19:31:09.461Z,15.00
2019-05-17T19:33:31.231Z,15.00
2019-05-17T19:36:12.500Z,14.90
2019-05-17T19:38:34.223Z,14.80
2019-05-17T19:40:55.538Z,14.80
2019-05-17T19:43:17.166Z,14.80
2019-05-17T19:45:38.563Z,14.70
2019-05-17T19:47:59.938Z,14.70
2019-05-17T19:50:21.483Z,14.60
2019-05-17T19:52:43.143Z,14.60
2019-05-17T19:55:04.655Z,14.60
2019-05-17T19:57:25.965Z,14.50
2019-05-17T19:59:47.351Z,14.50
2019-05-17T20:02:09.343Z,14.40
2019-05-17T20:04:30.597Z,14.40
2019-05-17T20:06:52.550Z,14.40
2019-05-17T20:09:14.099Z,14.30
2019-05-17T20:11:35.585Z,14.30
2019-05-17T20:13:57.178Z,14.20
2019-05-17T20:16:18.764Z,14.20
2019-05-17T20:18:40.033Z,14.20
2019-05-17T20:21:01.633Z,14.20
2019-05-17T20:23:23.307Z,14.10
2019-05-17T20:25:44.890Z,14.10
2019-05-17T20:28:06.276Z,14.10
2019-05-17T20:30:27.958Z,14.00
2019-05-17T20:32:49.420Z,14.00
2019-05-17T20:35:11.043Z,14.00
2019-05-17T20:37:32.813Z,14.00
2019-05-17T20:39:54.303Z,14.00
2019-05-17T20:42:15.810Z,14.00
2019-05-17T20:45:08.882Z,13.90
2019-05-17T20:47:31.123Z,13.90
2019-05-17T20:49:52.528Z,13.90
2019-05-17T20:52:14.933Z,13.90
2019-05-17T20:54:36.310Z,13.90
2019-05-17T20:56:58.095Z,13.90
2019-05-17T20:59:19.721Z,13.90
2019-05-17T21:01:41.126Z,13.80
2019-05-17T21:04:03.159Z,13.80
2019-05-17T21:06:24.685Z,13.80
2019-05-17T21:08:46.798Z,13.70
2019-05-17T21:11:08.208Z,13.70
2019-05-17T21:13:29.653Z,13.60
2019-05-17T21:15:51.756Z,13.50
2019-05-17T21:18:13.237Z,13.50
2019-05-17T21:20:34.553Z,13.40
2019-05-17T21:22:56.507Z,13.30
2019-05-17T21:25:32.191Z,13.30
2019-05-17T21:27:53.609Z,13.30
2019-05-17T21:30:15.498Z,13.10
2019-05-17T21:32:37.357Z,13.10
2019-05-17T21:34:59.080Z,13.10
2019-05-17T21:37:20.710Z,13.00
2019-05-17T21:39:42.762Z,13.00
2019-05-17T21:42:04.691Z,12.90
2019-05-17T21:44:27.200Z,12.90
2019-05-17T21:47:03.860Z,12.90
2019-05-17T21:49:12.112Z,12.90
2019-05-17T21:51:33.691Z,12.80
2019-05-17T21:53:55.932Z,12.80
2019-05-17T21:56:17.599Z,12.80
2019-05-17T21:58:40.000Z,12.80
2019-05-17T22:01:22.045Z,12.70
2019-05-17T22:03:43.437Z,12.80
2019-05-17T22:06:04.818Z,12.80
2019-05-17T22:08:26.368Z,12.70
2019-05-17T22:10:49.010Z,12.70
2019-05-17T22:13:10.395Z,12.70
2019-05-17T22:15:31.940Z,12.70
2019-05-17T22:17:53.340Z,12.80
2019-05-17T22:20:14.597Z,12.90
2019-05-17T22:22:36.154Z,12.90
2019-05-17T22:24:57.542Z,12.90
2019-05-17T22:27:19.051Z,12.80
2019-05-17T22:29:41.178Z,12.80
2019-05-17T22:32:02.870Z,12.80
2019-05-17T22:34:24.157Z,12.80
2019-05-17T22:36:45.476Z,12.80
2019-05-17T22:39:26.614Z,12.80
2019-05-17T22:41:48.133Z,12.80
2019-05-17T22:44:09.521Z,12.70
2019-05-17T22:46:36.238Z,12.70
2019-05-17T22:48:54.055Z,12.70
2019-05-17T22:51:15.451Z,12.60
2019-05-17T22:53:37.452Z,12.50
2019-05-17T22:55:58.891Z,12.50
2019-05-17T22:58:20.694Z,12.50
2019-05-17T23:00:42.269Z,12.40
2019-05-17T23:03:03.697Z,12.30
2019-05-17T23:05:26.237Z,12.20
2019-05-17T23:07:48.093Z,12.20
2019-05-17T23:10:09.612Z,12.10
2019-05-17T23:12:31.008Z,12.10
2019-05-17T23:14:52.495Z,12.10
2019-05-17T23:17:13.801Z,12.00
2019-05-17T23:19:35.284Z,12.00
2019-05-17T23:21:56.575Z,12.00
2019-05-17T23:24:18.000Z,11.90
2019-05-17T23:26:39.476Z,11.90
2019-05-17T23:29:00.789Z,11.90
2019-05-17T23:31:22.161Z,11.80
2019-05-17T23:33:43.537Z,11.80
2019-05-17T23:36:04.944Z,11.80
2019-05-17T23:38:26.265Z,11.80
2019-05-17T23:40:47.641Z,11.90
2019-05-17T23:43:09.221Z,11.90
2019-05-17T23:45:30.860Z,12.00
2019-05-17T23:47:52.345Z,12.10
2019-05-17T23:50:15.037Z,12.10
2019-05-17T23:52:36.597Z,12.10
2019-05-17T23:54:57.889Z,12.20
2019-05-17T23:57:19.287Z,12.10
2019-05-17T23:59:41.354Z,12.00
